Time;durP1;ratioP1;P1;durP2;ratioP2;P2;SDS_P1;SDS_P2;PMS_P1;PMS_P2;Temp;Humidity;BMP_temperature;BMP_pressure;BME280_temperature;BME280_humidity;BME280_pressure;Samples;Min_cycle;Max_cycle;Signal;HPM_P1;HPM_P2
2023/04/08 00:01:40;;;;;;;;;;;;;;;;;;5053797;28;4978;-52
2023/04/08 00:04:08;;;;;;;;;;;;;;;;;;5053579;28;1938;-54
2023/04/08 00:06:33;;;;;;;;;;;;;;;;;;5047083;28;5005;-50
2023/04/08 00:08:58;;;;;;;;;;;;;;;;;;5049920;28;4667;-54
2023/04/08 00:11:24;;;;;;;;;;;;;;;;;;5050547;28;5067;-52
2023/04/08 00:13:49;;;;;;;;;;;;;;;;;;5044001;28;4643;-53
2023/04/08 00:16:14;;;;;;;;;;;;;;;;;;5057888;28;1089;-52
2023/04/08 00:18:40;;;;;;;;;;;;;;;;;;5054240;28;4576;-52
2023/04/08 00:21:05;;;;;;;;;;;;;;;;;;5055010;28;5064;-51
2023/04/08 00:23:30;;;;;;;;;;;;;;;;;;5053003;28;5139;-51
2023/04/08 00:25:55;;;;;;;;;;;;;;;;;;5047941;28;5210;-52
2023/04/08 00:28:21;;;;;;;;;;;;;;;;;;5059371;28;4657;-52
2023/04/08 00:30:46;;;;;;;;;;;;;;;;;;5062877;28;3227;-51
2023/04/08 00:33:11;;;;;;;;;;;;;;;;;;5049486;28;4471;-53
2023/04/08 00:35:37;;;;;;;;;;;;;;;;;;5053563;28;4450;-50
2023/04/08 00:38:03;;;;;;;;;;;;;;;;;;5055833;28;4505;-53
2023/04/08 00:40:28;;;;;;;;;;;;;;;;;;5047456;28;5420;-53
2023/04/08 00:42:53;;;;;;;;;;;;;;;;;;5050459;28;3170;-53
2023/04/08 00:45:18;;;;;;;;;;;;;;;;;;5086285;28;4664;-53
2023/04/08 00:47:45;;;;;;;;;;;;;;;;;;5051112;28;4548;-51
2023/04/08 00:50:10;;;;;;;;;;;;;;;;;;5079017;28;5037;-50
2023/04/08 00:52:36;;;;;;;;;;;;;;;;;;5051405;28;4686;-52
2023/04/08 00:55:01;;;;;;;;;;;;;;;;;;5050474;28;1258;-51
2023/04/08 00:57:26;;;;;;;;;;;;;;;;;;5049445;28;4476;-50
2023/04/08 00:59:52;;;;;;;;;;;;;;;;;;5056157;28;4613;-51
2023/04/08 01:02:24;;;;;;;;;;;;;;;;;;5077387;28;4772;-52
2023/04/08 01:05:20;;;;;;;;;;;;;;;;;;5049326;28;4699;-53
2023/04/08 01:07:48;;;;;;;;;;;;;;;;;;5045474;28;4642;-50
2023/04/08 01:10:13;;;;;;;;;;;;;;;;;;5087466;28;1432;-51
2023/04/08 01:12:49;;;;;;;;;;;;;;;;;;5059722;28;4541;-51
2023/04/08 01:15:14;;;;;;;;;;;;;;;;;;5040500;28;4647;-49
2023/04/08 01:17:39;;;;;;;;;;;;;;;;;;5049669;28;5137;-52
2023/04/08 01:20:05;;;;;;;;;;;;;;;;;;5095655;28;4432;-50
2023/04/08 01:22:40;;;;;;;;;;;;;;;;;;5055355;28;4655;-51
2023/04/08 01:25:07;;;;;;;;;;;;;;;;;;5049059;28;4858;-52
2023/04/08 01:27:33;;;;;;;;;;;;;;;;;;5057780;28;4462;-53
2023/04/08 01:29:58;;;;;;;;;;;;;;;;;;5082340;28;4517;-51
2023/04/08 01:32:24;;;;;;;;;;;;;;;;;;5044041;28;5011;-51
2023/04/08 01:34:49;;;;;;;;;;;;;;;;;;5083179;28;5086;-53
2023/04/08 01:37:14;;;;;;;;;;;;;;;;;;5050071;28;3249;-51
2023/04/08 01:39:40;;;;;;;;;;;;;;;;;;5050558;28;4527;-52
2023/04/08 01:42:05;;;;;;;;;;;;;;;;;;5055562;28;4682;-52
2023/04/08 01:44:32;;;;;;;;;;;;;;;;;;5048402;28;4616;-52
2023/04/08 01:46:57;;;;;;;;;;;;;;;;;;5055347;28;5057;-52
2023/04/08 01:49:22;;;;;;;;;;;;;;;;;;5052652;28;4667;-53
2023/04/08 01:51:48;;;;;;;;;;;;;;;;;;5049899;28;3187;-50
2023/04/08 01:54:13;;;;;;;;;;;;;;;;;;5076690;28;4536;-53
2023/04/08 01:56:39;;;;;;;;;;;;;;;;;;5056618;28;5412;-53
2023/04/08 01:59:05;;;;;;;;;;;;;;;;;;5096485;28;4476;-52
2023/04/08 02:01:31;;;;;;;;;;;;;;;;;;5068292;28;5100;-50
2023/04/08 02:03:56;;;;;;;;;;;;;;;;;;5066218;28;3147;-53
2023/04/08 02:06:22;;;;;;;;;;;;;;;;;;5054150;28;5065;-54
2023/04/08 02:08:47;;;;;;;;;;;;;;;;;;5059903;28;5195;-53
2023/04/08 02:11:12;;;;;;;;;;;;;;;;;;5055164;28;4567;-53
2023/04/08 02:13:37;;;;;;;;;;;;;;;;;;5052427;28;4475;-52
2023/04/08 02:16:09;;;;;;;;;;;;;;;;;;5061877;28;3394;-51
2023/04/08 02:18:35;;;;;;;;;;;;;;;;;;5083778;28;4918;-52
2023/04/08 02:21:03;;;;;;;;;;;;;;;;;;5058887;28;4832;-52
2023/04/08 02:23:28;;;;;;;;;;;;;;;;;;5058264;28;4832;-53
2023/04/08 02:25:54;;;;;;;;;;;;;;;;;;5086355;28;4656;-51
2023/04/08 02:28:19;;;;;;;;;;;;;;;;;;5051560;28;4783;-52
2023/04/08 02:30:49;;;;;;;;;;;;;;;;;;5096584;28;3486;-51
2023/04/08 02:33:14;;;;;;;;;;;;;;;;;;5082604;28;4984;-50
2023/04/08 02:35:40;;;;;;;;;;;;;;;;;;5055233;28;5042;-51
2023/04/08 02:38:05;;;;;;;;;;;;;;;;;;5065962;28;5099;-52
2023/04/08 02:40:31;;;;;;;;;;;;;;;;;;5051663;28;4691;-50
2023/04/08 02:42:56;;;;;;;;;;;;;;;;;;5057164;28;1139;-52
2023/04/08 02:45:21;;;;;;;;;;;;;;;;;;5054489;28;4588;-52
2023/04/08 02:47:47;;;;;;;;;;;;;;;;;;5061441;28;5221;-53
2023/04/08 02:50:12;;;;;;;;;;;;;;;;;;5063962;28;4699;-50
2023/04/08 02:52:37;;;;;;;;;;;;;;;;;;5067991;28;5055;-51
2023/04/08 02:55:05;;;;;;;;;;;;;;;;;;5061645;28;1155;-49
2023/04/08 02:57:30;;;;;;;;;;;;;;;;;;5063932;28;4583;-53
2023/04/08 02:59:56;;;;;;;;;;;;;;;;;;5050176;28;4927;-50
2023/04/08 03:02:21;;;;;;;;;;;;;;;;;;5062416;28;4763;-49
2023/04/08 03:04:46;;;;;;;;;;;;;;;;;;5057331;28;5179;-50
2023/04/08 03:07:11;;;;;;;;;;;;;;;;;;5054383;28;3152;-53
2023/04/08 03:09:37;;;;;;;;;;;;;;;;;;5052976;28;4425;-53
2023/04/08 03:12:02;;;;;;;;;;;;;;;;;;5052493;28;4424;-51
2023/04/08 03:14:27;;;;;;;;;;;;;;;;;;5060949;28;4521;-53
2023/04/08 03:16:52;;;;;;;;;;;;;;;;;;5052109;28;4599;-51
2023/04/08 03:19:18;;;;;;;;;;;;;;;;;;5085642;28;5134;-53
2023/04/08 03:21:43;;;;;;;;;;;;;;;;;;5051242;28;1170;-53
2023/04/08 03:24:08;;;;;;;;;;;;;;;;;;5047854;28;5003;-51
2023/04/08 03:26:33;;;;;;;;;;;;;;;;;;5058361;28;4989;-52
2023/04/08 03:28:59;;;;;;;;;;;;;;;;;;5052845;28;4697;-52
2023/04/08 03:31:24;;;;;;;;;;;;;;;;;;5055719;28;4781;-51
2023/04/08 03:33:50;;;;;;;;;;;;;;;;;;5058356;28;1167;-52
2023/04/08 03:36:15;;;;;;;;;;;;;;;;;;5059319;28;4637;-52
2023/04/08 03:38:40;;;;;;;;;;;;;;;;;;5054574;28;4478;-50
2023/04/08 03:41:05;;;;;;;;;;;;;;;;;;5051331;28;5039;-53
2023/04/08 03:43:31;;;;;;;;;;;;;;;;;;5053516;28;5013;-52
2023/04/08 03:45:56;;;;;;;;;;;;;;;;;;5061878;28;3225;-51
2023/04/08 03:48:22;;;;;;;;;;;;;;;;;;5050360;28;4434;-54
2023/04/08 03:50:47;;;;;;;;;;;;;;;;;;5050101;28;4491;-52
2023/04/08 03:53:12;;;;;;;;;;;;;;;;;;5052267;28;4569;-51
2023/04/08 03:55:38;;;;;;;;;;;;;;;;;;5062986;28;5013;-52
2023/04/08 03:58:03;;;;;;;;;;;;;;;;;;5053426;28;1292;-50
2023/04/08 04:00:28;;;;;;;;;;;;;;;;;;5062114;28;5008;-52
2023/04/08 04:02:55;;;;;;;;;;;;;;;;;;5058678;28;5048;-53
2023/04/08 04:05:20;;;;;;;;;;;;;;;;;;5058161;28;4490;-52
2023/04/08 04:07:45;;;;;;;;;;;;;;;;;;5065066;28;4985;-49
2023/04/08 04:10:10;;;;;;;;;;;;;;;;;;5051653;28;1405;-54
2023/04/08 04:12:36;;;;;;;;;;;;;;;;;;5046536;28;4401;-52
2023/04/08 04:15:01;;;;;;;;;;;;;;;;;;5052449;28;5131;-52
2023/04/08 04:17:26;;;;;;;;;;;;;;;;;;5057146;28;4632;-47
2023/04/08 04:19:52;;;;;;;;;;;;;;;;;;5050330;28;4673;-51
2023/04/08 04:22:17;;;;;;;;;;;;;;;;;;5059956;28;4476;-53
2023/04/08 04:24:45;;;;;;;;;;;;;;;;;;5060041;28;4694;-49
2023/04/08 04:27:10;;;;;;;;;;;;;;;;;;5050779;28;4595;-50
2023/04/08 04:29:36;;;;;;;;;;;;;;;;;;5058796;28;5031;-51
2023/04/08 04:32:01;;;;;;;;;;;;;;;;;;5049830;28;5027;-52
2023/04/08 04:34:26;;;;;;;;;;;;;;;;;;5052399;28;4499;-52
2023/04/08 04:36:51;;;;;;;;;;;;;;;;;;5059926;28;1336;-50
2023/04/08 04:39:17;;;;;;;;;;;;;;;;;;5048285;28;4446;-52
2023/04/08 04:41:43;;;;;;;;;;;;;;;;;;5049592;28;5136;-51
2023/04/08 04:44:08;;;;;;;;;;;;;;;;;;5051658;28;4552;-53
2023/04/08 04:46:33;;;;;;;;;;;;;;;;;;5050685;28;4520;-52
2023/04/08 04:48:59;;;;;;;;;;;;;;;;;;5056972;28;3254;-53
2023/04/08 04:51:25;;;;;;;;;;;;;;;;;;5053720;28;4476;-54
2023/04/08 04:53:50;;;;;;;;;;;;;;;;;;5060167;28;4616;-52
2023/04/08 04:56:16;;;;;;;;;;;;;;;;;;5047889;28;4712;-54
2023/04/08 04:58:41;;;;;;;;;;;;;;;;;;5073838;28;4947;-53
2023/04/08 05:01:06;;;;;;;;;;;;;;;;;;5051067;28;3134;-50
2023/04/08 05:03:31;;;;;;;;;;;;;;;;;;5051721;28;4952;-51
2023/04/08 05:05:57;;;;;;;;;;;;;;;;;;5054549;28;5760;-52
2023/04/08 05:08:22;;;;;;;;;;;;;;;;;;5049454;28;4988;-52
2023/04/08 05:10:49;;;;;;;;;;;;;;;;;;5049756;28;4900;-53
2023/04/08 05:13:15;;;;;;;;;;;;;;;;;;5049192;28;3154;-50
2023/04/08 05:15:40;;;;;;;;;;;;;;;;;;5050866;28;4524;-52
2023/04/08 05:18:05;;;;;;;;;;;;;;;;;;5051824;28;4466;-53
2023/04/08 05:20:31;;;;;;;;;;;;;;;;;;5056855;28;4922;-52
2023/04/08 05:22:56;;;;;;;;;;;;;;;;;;5053725;28;4707;-53
2023/04/08 05:25:21;;;;;;;;;;;;;;;;;;5048664;28;4920;-53
2023/04/08 05:27:46;;;;;;;;;;;;;;;;;;5079361;28;3274;-54
2023/04/08 05:30:12;;;;;;;;;;;;;;;;;;5049145;28;4509;-52
2023/04/08 05:32:37;;;;;;;;;;;;;;;;;;5056016;28;4466;-53
2023/04/08 05:35:03;;;;;;;;;;;;;;;;;;5056455;28;5045;-52
2023/04/08 05:37:28;;;;;;;;;;;;;;;;;;5049073;28;4513;-50
2023/04/08 05:39:53;;;;;;;;;;;;;;;;;;5043839;28;3334;-53
2023/04/08 05:42:18;;;;;;;;;;;;;;;;;;5052896;28;4437;-52
2023/04/08 05:44:44;;;;;;;;;;;;;;;;;;5051900;28;4950;-53
2023/04/08 05:47:09;;;;;;;;;;;;;;;;;;5047413;28;5040;-52
2023/04/08 05:49:34;;;;;;;;;;;;;;;;;;5044065;28;4807;-53
2023/04/08 05:52:00;;;;;;;;;;;;;;;;;;5053498;28;3278;-52
2023/04/08 05:54:25;;;;;;;;;;;;;;;;;;5053513;28;4419;-53
2023/04/08 05:56:50;;;;;;;;;;;;;;;;;;5058631;28;5103;-52
2023/04/08 05:59:15;;;;;;;;;;;;;;;;;;5053669;28;4491;-54
2023/04/08 06:01:41;;;;;;;;;;;;;;;;;;5050843;28;5045;-51
2023/04/08 06:04:06;;;;;;;;;;;;;;;;;;5053417;28;1119;-51
2023/04/08 06:06:31;;;;;;;;;;;;;;;;;;5054872;28;4950;-50
2023/04/08 06:08:56;;;;;;;;;;;;;;;;;;5051382;28;4501;-50
2023/04/08 06:11:22;;;;;;;;;;;;;;;;;;5053629;28;4474;-50
2023/04/08 06:13:47;;;;;;;;;;;;;;;;;;5049927;28;5177;-53
2023/04/08 06:16:13;;;;;;;;;;;;;;;;;;5060724;28;3101;-50
2023/04/08 06:18:38;;;;;;;;;;;;;;;;;;5045727;28;5057;-50
2023/04/08 06:21:03;;;;;;;;;;;;;;;;;;5054471;28;4739;-53
2023/04/08 06:23:28;;;;;;;;;;;;;;;;;;5048662;28;4627;-53
2023/04/08 06:25:54;;;;;;;;;;;;;;;;;;5054935;28;5284;-51
2023/04/08 06:28:19;;;;;;;;;;;;;;;;;;5053418;28;4599;-50
2023/04/08 06:30:44;;;;;;;;;;;;;;;;;;5056408;28;3495;-54
2023/04/08 06:33:10;;;;;;;;;;;;;;;;;;5048166;28;4581;-53
2023/04/08 06:35:36;;;;;;;;;;;;;;;;;;5056972;28;5084;-53
2023/04/08 06:38:02;;;;;;;;;;;;;;;;;;5064315;28;4670;-51
2023/04/08 06:40:27;;;;;;;;;;;;;;;;;;5048670;28;4518;-50
2023/04/08 06:42:53;;;;;;;;;;;;;;;;;;5043355;28;3167;-50
2023/04/08 06:45:18;;;;;;;;;;;;;;;;;;5048121;28;5057;-52
2023/04/08 06:47:43;;;;;;;;;;;;;;;;;;5053553;28;4696;-52
2023/04/08 06:50:09;;;;;;;;;;;;;;;;;;5045062;28;5074;-51
2023/04/08 06:52:34;;;;;;;;;;;;;;;;;;5044129;28;5086;-54
2023/04/08 06:54:59;;;;;;;;;;;;;;;;;;5060136;28;1217;-52
2023/04/08 06:57:25;;;;;;;;;;;;;;;;;;5055511;28;4817;-54
2023/04/08 06:59:51;;;;;;;;;;;;;;;;;;5045060;28;5164;-49
2023/04/08 07:02:17;;;;;;;;;;;;;;;;;;5051706;28;4645;-50
2023/04/08 07:04:42;;;;;;;;;;;;;;;;;;5047903;28;5046;-49
2023/04/08 07:07:08;;;;;;;;;;;;;;;;;;5058975;28;3605;-50
2023/04/08 07:09:33;;;;;;;;;;;;;;;;;;5051375;28;4403;-48
2023/04/08 07:11:58;;;;;;;;;;;;;;;;;;5056258;28;5011;-50
2023/04/08 07:14:24;;;;;;;;;;;;;;;;;;5050628;28;5511;-49
2023/04/08 07:16:49;;;;;;;;;;;;;;;;;;5056306;28;4486;-49
2023/04/08 07:19:15;;;;;;;;;;;;;;;;;;5050177;28;1297;-50
2023/04/08 07:21:40;;;;;;;;;;;;;;;;;;5044579;28;4369;-55
2023/04/08 07:24:05;;;;;;;;;;;;;;;;;;5048145;28;4663;-54
2023/04/08 07:26:31;;;;;;;;;;;;;;;;;;5052637;28;4861;-52
2023/04/08 07:28:56;;;;;;;;;;;;;;;;;;5054251;28;4990;-53
2023/04/08 07:31:22;;;;;;;;;;;;;;;;;;5047177;28;4493;-50
2023/04/08 07:33:47;;;;;;;;;;;;;;;;;;5052389;28;3057;-51
2023/04/08 07:36:12;;;;;;;;;;;;;;;;;;5055021;28;4477;-63
2023/04/08 07:38:38;;;;;;;;;;;;;;;;;;5056922;28;4454;-61
2023/04/08 07:41:03;;;;;;;;;;;;;;;;;;5054094;28;4628;-50
2023/04/08 07:43:30;;;;;;;;;;;;;;;;;;5049862;28;4498;-52
2023/04/08 07:45:59;;;;;;;;;;;;;;;;;;5047786;28;1986;-52
2023/04/08 07:48:24;;;;;;;;;;;;;;;;;;5053060;28;4686;-53
2023/04/08 07:50:49;;;;;;;;;;;;;;;;;;5055362;28;4682;-52
2023/04/08 07:53:14;;;;;;;;;;;;;;;;;;5049536;28;4562;-54
2023/04/08 07:55:41;;;;;;;;;;;;;;;;;;5042369;28;4683;-56
2023/04/08 07:58:06;;;;;;;;;;;;;;;;;;5048385;28;3377;-55
2023/04/08 08:00:32;;;;;;;;;;;;;;;;;;5044613;28;5020;-62
2023/04/08 08:02:57;;;;;;;;;;;;;;;;;;5040858;28;4459;-58
2023/04/08 08:05:22;;;;;;;;;;;;;;;;;;5065899;28;4988;-61
2023/04/08 08:07:49;;;;;;;;;;;;;;;;;;5048732;28;4922;-59
2023/04/08 08:10:14;;;;;;;;;;;;;;;;;;5042384;28;2376;-60
2023/04/08 08:12:40;;;;;;;;;;;;;;;;;;5038763;28;4553;-60
2023/04/08 08:15:06;;;;;;;;;;;;;;;;;;5043631;28;4600;-62
2023/04/08 08:17:32;;;;;;;;;;;;;;;;;;5044003;28;5136;-61
2023/04/08 08:19:58;;;;;;;;;;;;;;;;;;5041013;28;4848;-62
2023/04/08 08:22:23;;;;;;;;;;;;;;;;;;5045652;28;5104;-62
2023/04/08 08:24:48;;;;;;;;;;;;;;;;;;5028236;28;4657;-57
2023/04/08 08:27:13;;;;;;;;;;;;;;;;;;5038338;28;4683;-63
2023/04/08 08:29:39;;;;;;;;;;;;;;;;;;5042325;28;4733;-57
2023/04/08 08:32:04;;;;;;;;;;;;;;;;;;5040096;28;4686;-55
2023/04/08 08:34:30;;;;;;;;;;;;;;;;;;5045355;28;5201;-62
2023/04/08 08:36:55;;;;;;;;;;;;;;;;;;5070646;28;3188;-61
2023/04/08 08:39:21;;;;;;;;;;;;;;;;;;5040366;28;4459;-60
2023/04/08 08:41:46;;;;;;;;;;;;;;;;;;5039139;28;4514;-59
2023/04/08 08:44:11;;;;;;;;;;;;;;;;;;5042392;28;5055;-60
2023/04/08 08:46:39;;;;;;;;;;;;;;;;;;5034729;28;5283;-56
2023/04/08 08:49:04;;;;;;;;;;;;;;;;;;5071207;28;3225;-60
2023/04/08 08:51:31;;;;;;;;;;;;;;;;;;5043607;28;4689;-57
2023/04/08 08:53:56;;;;;;;;;;;;;;;;;;5069559;28;4705;-60
2023/04/08 08:56:22;;;;;;;;;;;;;;;;;;5046432;28;4576;-61
2023/04/08 08:58:47;;;;;;;;;;;;;;;;;;5077658;28;4492;-59
2023/04/08 09:01:32;;;;;;;;;;;;;;;;;;5044665;28;3295;-58
2023/04/08 09:04:15;;;;;;;;;;;;;;;;;;5045302;28;5076;-58
2023/04/08 09:06:40;;;;;;;;;;;;;;;;;;5041121;28;4553;-57
2023/04/08 09:09:09;;;;;;;;;;;;;;;;;;5038975;28;4470;-63
2023/04/08 09:11:34;;;;;;;;;;;;;;;;;;5037508;28;4531;-57
2023/04/08 09:13:59;;;;;;;;;;;;;;;;;;5041011;28;4577;-62
2023/04/08 09:16:25;;;;;;;;;;;;;;;;;;5043798;28;5441;-53
2023/04/08 09:18:51;;;;;;;;;;;;;;;;;;5043614;28;3095;-50
2023/04/08 09:21:16;;;;;;;;;;;;;;;;;;5043146;28;4729;-52
2023/04/08 09:23:41;;;;;;;;;;;;;;;;;;5046531;28;4717;-48
2023/04/08 09:26:10;;;;;;;;;;;;;;;;;;5044554;28;4764;-54
2023/04/08 09:28:36;;;;;;;;;;;;;;;;;;5046560;28;4983;-54
2023/04/08 09:31:08;;;;;;;;;;;;;;;;;;5047857;28;1927;-55
2023/04/08 09:33:33;;;;;;;;;;;;;;;;;;5081004;28;4980;-55
2023/04/08 09:35:58;;;;;;;;;;;;;;;;;;5033586;28;4777;-53
2023/04/08 09:38:24;;;;;;;;;;;;;;;;;;5046780;28;4549;-51
2023/04/08 09:40:49;;;;;;;;;;;;;;;;;;5049189;28;4451;-56
2023/04/08 09:43:14;;;;;;;;;;;;;;;;;;5057299;28;3213;-54
2023/04/08 09:45:41;;;;;;;;;;;;;;;;;;5074750;28;4560;-53
2023/04/08 09:48:11;;;;;;;;;;;;;;;;;;5049069;28;5128;-54
2023/04/08 09:50:39;;;;;;;;;;;;;;;;;;5053427;28;4657;-53
2023/04/08 09:53:17;;;;;;;;;;;;;;;;;;5046296;28;5167;-51
2023/04/08 09:55:43;;;;;;;;;;;;;;;;;;5092374;28;4551;-52
2023/04/08 09:58:10;;;;;;;;;;;;;;;;;;5061295;28;1221;-48
2023/04/08 10:00:42;;;;;;;;;;;;;;;;;;5048122;28;5093;-54
2023/04/08 10:03:33;;;;;;;;;;;;;;;;;;5043927;28;4636;-53
2023/04/08 10:06:00;;;;;;;;;;;;;;;;;;5045781;28;4447;-54
2023/04/08 10:08:25;;;;;;;;;;;;;;;;;;5057389;28;5290;-54
2023/04/08 10:10:51;;;;;;;;;;;;;;;;;;5053661;28;4507;-53
2023/04/08 10:13:16;;;;;;;;;;;;;;;;;;5072488;28;4512;-52
2023/04/08 10:15:42;;;;;;;;;;;;;;;;;;5071120;28;3367;-53
2023/04/08 10:18:10;;;;;;;;;;;;;;;;;;5039030;28;5200;-55
2023/04/08 10:20:35;;;;;;;;;;;;;;;;;;5044011;28;4810;-55
2023/04/08 10:23:04;;;;;;;;;;;;;;;;;;5046189;28;4450;-55
2023/04/08 10:25:32;;;;;;;;;;;;;;;;;;5057989;28;4692;-51
2023/04/08 10:27:58;;;;;;;;;;;;;;;;;;5045851;28;3550;-52
2023/04/08 10:30:26;;;;;;;;;;;;;;;;;;5030129;28;4528;-50
2023/04/08 10:32:55;;;;;;;;;;;;;;;;;;5046936;28;5023;-55
2023/04/08 10:35:45;;;;;;;;;;;;;;;;;;5048604;28;5186;-51
2023/04/08 10:38:12;;;;;;;;;;;;;;;;;;5026921;28;5023;-50
2023/04/08 10:40:41;;;;;;;;;;;;;;;;;;5042636;28;4701;-49
2023/04/08 10:43:06;;;;;;;;;;;;;;;;;;5043016;28;3247;-52
2023/04/08 10:45:32;;;;;;;;;;;;;;;;;;5042771;28;4645;-54
2023/04/08 10:48:10;;;;;;;;;;;;;;;;;;5038738;28;4960;-52
2023/04/08 10:50:35;;;;;;;;;;;;;;;;;;5042964;28;4609;-47
2023/04/08 10:53:01;;;;;;;;;;;;;;;;;;5042835;28;5035;-66
2023/04/08 10:55:26;;;;;;;;;;;;;;;;;;5042882;28;4644;-50
2023/04/08 10:57:52;;;;;;;;;;;;;;;;;;5041453;28;3258;-52
2023/04/08 11:00:17;;;;;;;;;;;;;;;;;;5073465;28;4877;-53
2023/04/08 11:02:42;;;;;;;;;;;;;;;;;;5043925;28;4472;-53
2023/04/08 11:05:09;;;;;;;;;;;;;;;;;;5047273;28;4618;-51
2023/04/08 11:07:38;;;;;;;;;;;;;;;;;;5078004;28;4521;-53
2023/04/08 11:10:04;;;;;;;;;;;;;;;;;;5052187;28;1447;-53
2023/04/08 11:12:31;;;;;;;;;;;;;;;;;;5054545;28;5008;-53
2023/04/08 11:14:56;;;;;;;;;;;;;;;;;;5054660;28;5075;-54
2023/04/08 11:17:22;;;;;;;;;;;;;;;;;;5052242;28;4503;-50
2023/04/08 11:19:48;;;;;;;;;;;;;;;;;;5049710;28;4812;-53
2023/04/08 11:22:13;;;;;;;;;;;;;;;;;;5080990;28;3211;-51
2023/04/08 11:24:38;;;;;;;;;;;;;;;;;;5056110;28;4938;-54
2023/04/08 11:27:05;;;;;;;;;;;;;;;;;;5048389;28;4565;-53
2023/04/08 11:29:30;;;;;;;;;;;;;;;;;;5083127;28;4934;-53
2023/04/08 11:31:55;;;;;;;;;;;;;;;;;;5050547;28;5024;-50
2023/04/08 11:34:21;;;;;;;;;;;;;;;;;;5062234;28;4997;-55
2023/04/08 11:36:46;;;;;;;;;;;;;;;;;;5059722;28;1357;-54
2023/04/08 11:39:11;;;;;;;;;;;;;;;;;;5058330;28;4465;-52
2023/04/08 11:41:40;;;;;;;;;;;;;;;;;;5051247;28;4592;-54
2023/04/08 11:44:08;;;;;;;;;;;;;;;;;;5086019;28;5079;-54
2023/04/08 11:46:34;;;;;;;;;;;;;;;;;;5053759;28;5686;-53
2023/04/08 11:48:59;;;;;;;;;;;;;;;;;;5050192;28;1143;-53
2023/04/08 11:51:26;;;;;;;;;;;;;;;;;;5054184;28;4872;-53
2023/04/08 11:53:51;;;;;;;;;;;;;;;;;;5055184;28;4996;-52
2023/04/08 11:56:17;;;;;;;;;;;;;;;;;;5054821;28;4535;-53
2023/04/08 11:58:42;;;;;;;;;;;;;;;;;;5046930;28;4486;-53
2023/04/08 12:01:08;;;;;;;;;;;;;;;;;;5051387;28;3191;-50
2023/04/08 12:03:33;;;;;;;;;;;;;;;;;;5049329;28;4609;-53
2023/04/08 12:05:58;;;;;;;;;;;;;;;;;;5053332;28;4479;-52
2023/04/08 12:08:23;;;;;;;;;;;;;;;;;;5050996;28;4875;-49
2023/04/08 12:10:49;;;;;;;;;;;;;;;;;;5045970;28;5005;-54
2023/04/08 12:13:14;;;;;;;;;;;;;;;;;;5046497;28;3215;-54
2023/04/08 12:15:39;;;;;;;;;;;;;;;;;;5050717;28;4527;-51
2023/04/08 12:18:05;;;;;;;;;;;;;;;;;;5071212;28;5049;-52
2023/04/08 12:20:30;;;;;;;;;;;;;;;;;;5047022;28;4975;-54
2023/04/08 12:22:55;;;;;;;;;;;;;;;;;;5054735;28;4974;-52
2023/04/08 12:25:20;;;;;;;;;;;;;;;;;;5047717;28;5130;-54
2023/04/08 12:27:46;;;;;;;;;;;;;;;;;;5052179;28;3353;-53
2023/04/08 12:30:12;;;;;;;;;;;;;;;;;;5039933;28;4729;-53
2023/04/08 12:32:37;;;;;;;;;;;;;;;;;;5049670;28;4688;-58
2023/04/08 12:35:02;;;;;;;;;;;;;;;;;;5041490;28;5103;-58
2023/04/08 12:37:28;;;;;;;;;;;;;;;;;;5053486;28;5113;-56
2023/04/08 12:39:53;;;;;;;;;;;;;;;;;;5045002;28;2086;-55
2023/04/08 12:42:18;;;;;;;;;;;;;;;;;;5046041;28;4660;-62
2023/04/08 12:44:44;;;;;;;;;;;;;;;;;;5053930;28;5050;-58
2023/04/08 12:47:09;;;;;;;;;;;;;;;;;;5047223;28;4815;-62
2023/04/08 12:49:35;;;;;;;;;;;;;;;;;;5053600;28;5069;-62
2023/04/08 12:52:00;;;;;;;;;;;;;;;;;;5052330;28;3350;-64
2023/04/08 12:54:25;;;;;;;;;;;;;;;;;;5057564;28;4552;-66
2023/04/08 12:56:50;;;;;;;;;;;;;;;;;;5050310;28;4580;-64
2023/04/08 12:59:16;;;;;;;;;;;;;;;;;;5049540;28;4497;-62
2023/04/08 13:01:41;;;;;;;;;;;;;;;;;;5048590;28;4447;-61
2023/04/08 13:04:06;;;;;;;;;;;;;;;;;;5052513;28;1307;-60
2023/04/08 13:06:32;;;;;;;;;;;;;;;;;;5051781;28;4606;-62
2023/04/08 13:08:57;;;;;;;;;;;;;;;;;;5048122;28;4886;-61
2023/04/08 13:11:22;;;;;;;;;;;;;;;;;;5049955;28;4881;-58
2023/04/08 13:13:48;;;;;;;;;;;;;;;;;;5060165;28;4618;-58
2023/04/08 13:16:14;;;;;;;;;;;;;;;;;;5053260;28;1657;-62
2023/04/08 13:18:40;;;;;;;;;;;;;;;;;;5053584;28;4558;-62
2023/04/08 13:21:05;;;;;;;;;;;;;;;;;;5046062;28;4486;-61
2023/04/08 13:23:30;;;;;;;;;;;;;;;;;;5052015;28;4529;-62
2023/04/08 13:25:56;;;;;;;;;;;;;;;;;;5054555;28;5031;-61
2023/04/08 13:28:21;;;;;;;;;;;;;;;;;;5053790;28;4713;-60
2023/04/08 13:30:46;;;;;;;;;;;;;;;;;;5052630;28;3019;-63
2023/04/08 13:33:11;;;;;;;;;;;;;;;;;;5048325;28;4420;-59
2023/04/08 13:35:36;;;;;;;;;;;;;;;;;;5050361;28;4643;-66
2023/04/08 13:38:02;;;;;;;;;;;;;;;;;;5050606;28;5534;-62
2023/04/08 13:40:27;;;;;;;;;;;;;;;;;;5055799;28;5127;-64
2023/04/08 13:42:52;;;;;;;;;;;;;;;;;;5053111;28;3184;-59
2023/04/08 13:45:19;;;;;;;;;;;;;;;;;;5047849;28;4984;-63
2023/04/08 13:47:44;;;;;;;;;;;;;;;;;;5051023;28;4624;-59
2023/04/08 13:50:09;;;;;;;;;;;;;;;;;;5056843;28;5136;-62
2023/04/08 13:52:34;;;;;;;;;;;;;;;;;;5049937;28;4627;-62
2023/04/08 13:55:00;;;;;;;;;;;;;;;;;;5049632;28;1568;-67
2023/04/08 13:57:25;;;;;;;;;;;;;;;;;;5054312;28;4914;-63
2023/04/08 13:59:50;;;;;;;;;;;;;;;;;;5052749;28;4592;-54
2023/04/08 14:02:16;;;;;;;;;;;;;;;;;;5045937;28;5908;-63
2023/04/08 14:04:42;;;;;;;;;;;;;;;;;;5053318;28;5242;-61
2023/04/08 14:07:08;;;;;;;;;;;;;;;;;;5055148;28;1314;-62
2023/04/08 14:09:34;;;;;;;;;;;;;;;;;;5049101;28;4369;-60
2023/04/08 14:11:59;;;;;;;;;;;;;;;;;;5073103;28;4986;-62
2023/04/08 14:14:25;;;;;;;;;;;;;;;;;;5048966;28;5096;-69
2023/04/08 14:16:50;;;;;;;;;;;;;;;;;;5047552;28;5145;-65
2023/04/08 14:19:15;;;;;;;;;;;;;;;;;;5032785;28;3122;-60
2023/04/08 14:21:41;;;;;;;;;;;;;;;;;;5043543;28;4526;-60
2023/04/08 14:24:06;;;;;;;;;;;;;;;;;;5050297;28;4672;-57
2023/04/08 14:26:34;;;;;;;;;;;;;;;;;;5048745;28;5172;-63
2023/04/08 14:29:01;;;;;;;;;;;;;;;;;;5046007;28;4513;-61
2023/04/08 14:31:26;;;;;;;;;;;;;;;;;;5046000;28;4507;-61
2023/04/08 14:33:51;;;;;;;;;;;;;;;;;;5036700;28;3230;-61
2023/04/08 14:36:17;;;;;;;;;;;;;;;;;;5048053;28;4542;-63
2023/04/08 14:38:43;;;;;;;;;;;;;;;;;;5046012;28;5151;-72
2023/04/08 14:41:08;;;;;;;;;;;;;;;;;;5049033;28;5060;-63
2023/04/08 14:43:33;;;;;;;;;;;;;;;;;;5047679;28;4946;-60
2023/04/08 14:45:58;;;;;;;;;;;;;;;;;;5045663;28;3633;-59
2023/04/08 14:48:25;;;;;;;;;;;;;;;;;;5046870;28;4686;-59
2023/04/08 14:50:50;;;;;;;;;;;;;;;;;;5044647;28;4567;-57
2023/04/08 14:53:15;;;;;;;;;;;;;;;;;;5044427;28;5038;-54
2023/04/08 14:55:41;;;;;;;;;;;;;;;;;;5051415;28;4452;-55
2023/04/08 14:58:06;;;;;;;;;;;;;;;;;;5051265;28;1058;-54
2023/04/08 15:00:31;;;;;;;;;;;;;;;;;;5050521;28;5049;-55
2023/04/08 15:02:57;;;;;;;;;;;;;;;;;;5051427;28;4669;-55
2023/04/08 15:05:22;;;;;;;;;;;;;;;;;;5049855;28;4445;-55
2023/04/08 15:07:47;;;;;;;;;;;;;;;;;;5060494;28;4453;-57
2023/04/08 15:10:12;;;;;;;;;;;;;;;;;;5049518;28;1666;-56
2023/04/08 15:12:38;;;;;;;;;;;;;;;;;;5068334;28;5238;-56
2023/04/08 15:15:03;;;;;;;;;;;;;;;;;;5052529;28;4611;-56
2023/04/08 15:17:29;;;;;;;;;;;;;;;;;;5051614;28;4414;-57
2023/04/08 15:19:54;;;;;;;;;;;;;;;;;;5057159;28;4452;-56
2023/04/08 15:22:20;;;;;;;;;;;;;;;;;;5049838;28;4619;-55
2023/04/08 15:24:45;;;;;;;;;;;;;;;;;;5043387;28;4769;-54
2023/04/08 15:27:10;;;;;;;;;;;;;;;;;;5058306;28;4609;-55
2023/04/08 15:29:35;;;;;;;;;;;;;;;;;;5057864;28;4609;-55
2023/04/08 15:32:01;;;;;;;;;;;;;;;;;;5061746;28;4638;-55
2023/04/08 15:34:27;;;;;;;;;;;;;;;;;;5057357;28;5060;-59
2023/04/08 15:36:52;;;;;;;;;;;;;;;;;;5059491;28;1095;-54
2023/04/08 15:39:17;;;;;;;;;;;;;;;;;;5050674;28;4597;-54
2023/04/08 15:41:43;;;;;;;;;;;;;;;;;;5056306;28;5122;-55
2023/04/08 15:44:08;;;;;;;;;;;;;;;;;;5050047;28;4639;-55
2023/04/08 15:46:33;;;;;;;;;;;;;;;;;;5061742;28;4646;-56
2023/04/08 15:48:58;;;;;;;;;;;;;;;;;;5055398;28;1104;-56
2023/04/08 15:51:25;;;;;;;;;;;;;;;;;;5052112;28;4925;-55
2023/04/08 15:53:51;;;;;;;;;;;;;;;;;;5060061;28;4668;-55
2023/04/08 15:56:16;;;;;;;;;;;;;;;;;;5048417;28;4736;-55
2023/04/08 15:58:42;;;;;;;;;;;;;;;;;;5053914;28;4635;-55
2023/04/08 16:01:07;;;;;;;;;;;;;;;;;;5082265;28;1085;-55
2023/04/08 16:03:32;;;;;;;;;;;;;;;;;;5052715;28;4397;-56
2023/04/08 16:05:58;;;;;;;;;;;;;;;;;;5049607;28;4449;-57
2023/04/08 16:08:23;;;;;;;;;;;;;;;;;;5050096;28;4452;-56
2023/04/08 16:10:48;;;;;;;;;;;;;;;;;;5049464;28;4775;-55
2023/04/08 16:13:14;;;;;;;;;;;;;;;;;;5063300;28;1220;-55
2023/04/08 16:15:39;;;;;;;;;;;;;;;;;;5049308;28;4401;-56
2023/04/08 16:18:05;;;;;;;;;;;;;;;;;;5047715;28;4618;-57
2023/04/08 16:20:30;;;;;;;;;;;;;;;;;;5051298;28;4820;-57
2023/04/08 16:22:55;;;;;;;;;;;;;;;;;;5079795;28;4624;-57
2023/04/08 16:25:21;;;;;;;;;;;;;;;;;;5053265;28;4819;-56
2023/04/08 16:27:46;;;;;;;;;;;;;;;;;;5056265;28;1115;-55
2023/04/08 16:30:12;;;;;;;;;;;;;;;;;;5056328;28;5180;-56
2023/04/08 16:32:37;;;;;;;;;;;;;;;;;;5055146;28;5045;-56
2023/04/08 16:35:02;;;;;;;;;;;;;;;;;;5084410;28;4646;-57
2023/04/08 16:37:27;;;;;;;;;;;;;;;;;;5049323;28;4484;-56
2023/04/08 16:39:53;;;;;;;;;;;;;;;;;;5049347;28;1674;-57
2023/04/08 16:42:18;;;;;;;;;;;;;;;;;;5060417;28;4694;-55
2023/04/08 16:44:43;;;;;;;;;;;;;;;;;;5063941;28;4590;-56
2023/04/08 16:47:09;;;;;;;;;;;;;;;;;;5059558;28;4959;-56
2023/04/08 16:49:34;;;;;;;;;;;;;;;;;;5061936;28;4507;-56
2023/04/08 16:51:59;;;;;;;;;;;;;;;;;;5053431;28;1248;-54
2023/04/08 16:54:25;;;;;;;;;;;;;;;;;;5054141;28;4651;-56